Goode, Virginia
Current Conditions -  °F | °C
As of 7:54 AM on Friday 28 Nov 2014 (Local Time) from KLYH Reporting Station
Clear Clear  
Wind Chill: 30°   Ceiling: Unl
Heat Index: 30°   Visibility: 10mi
Dew Point: 18°   Wind: 3mph
Humidity: 61%   Direction: 290°WNW
Pressure: 30.32"   Gusts: NA
Location:  37.36°N, 79.39°W
Report Text: KLYH 281254Z 29003KT 10SM CLR M01/M08 A3032 RMK AO2 SLP274 T10111078 $
Loading
Personal Weather Stations






























Interactive Weather Map New forecast layout! Learn more

10-Day Weather Forecast

Advertisements
Track Severe Weather on mobile